createdAt,value
2024-01-11T00:06:33.652Z,-3.88
2024-01-11T00:26:33.711Z,-3.88
2024-01-11T00:46:33.663Z,-3.90
2024-01-11T01:06:33.720Z,-3.93
2024-01-11T01:26:33.777Z,-4.24
2024-01-11T01:46:33.728Z,-4.52
2024-01-11T02:06:33.777Z,-4.30
2024-01-11T02:26:33.847Z,-4.22
2024-01-11T02:46:33.804Z,-4.36
2024-01-11T03:06:33.870Z,-4.59
2024-01-11T03:26:33.913Z,-4.59
2024-01-11T03:46:33.867Z,-4.86
2024-01-11T04:06:34.004Z,-5.12
2024-01-11T04:26:33.984Z,-5.20
2024-01-11T04:46:33.941Z,-5.00
2024-01-11T05:06:34.003Z,-4.89
2024-01-11T05:26:33.964Z,-5.33
2024-01-11T05:46:34.040Z,-5.12
2024-01-11T06:06:34.104Z,-5.37
2024-01-11T06:26:34.055Z,-5.60
2024-01-11T06:46:34.125Z,-5.60
2024-01-11T07:06:34.102Z,-5.67
2024-01-11T07:26:34.154Z,-5.45
2024-01-11T07:46:34.437Z,-5.70
2024-01-11T08:06:34.350Z,-5.67
2024-01-11T08:26:34.355Z,-5.63
2024-01-11T08:46:34.606Z,-5.47
2024-01-11T09:06:34.595Z,-5.03
2024-01-11T09:26:34.377Z,-4.71
2024-01-11T09:46:34.568Z,-4.26
2024-01-11T10:06:34.362Z,-3.89
2024-01-11T10:26:34.728Z,-3.90
2024-01-11T10:46:34.737Z,-3.78
2024-01-11T11:06:34.476Z,-3.64
2024-01-11T11:26:34.582Z,-3.53
2024-01-11T11:46:34.855Z,-3.10
2024-01-11T12:06:34.654Z,-2.33
2024-01-11T12:26:34.802Z,-2.34
2024-01-11T12:46:34.663Z,-2.82
2024-01-11T13:06:34.816Z,-3.02
2024-01-11T13:26:34.869Z,-3.03
2024-01-11T13:46:34.892Z,-2.81
2024-01-11T14:06:34.929Z,-2.68
2024-01-11T14:26:34.718Z,-2.63
2024-01-11T14:46:34.573Z,-2.41
2024-01-11T15:06:34.814Z,-2.45
2024-01-11T15:26:34.910Z,-2.51
2024-01-11T15:46:34.651Z,-2.61
2024-01-11T16:06:34.886Z,-2.70
2024-01-11T16:26:35.056Z,-2.93
2024-01-11T16:46:34.965Z,-2.85
2024-01-11T17:06:34.802Z,-2.80
2024-01-11T17:26:35.124Z,-2.85
2024-01-11T17:46:34.876Z,-2.73
2024-01-11T18:06:35.110Z,-2.86
2024-01-11T18:26:35.103Z,-2.92
2024-01-11T18:46:34.826Z,-2.80
2024-01-11T19:06:35.175Z,-2.78
2024-01-11T19:26:35.065Z,-2.69
2024-01-11T19:46:35.181Z,-2.83
2024-01-11T20:06:35.082Z,-3.08
2024-01-11T20:26:35.121Z,-3.03
2024-01-11T20:46:35.244Z,-3.04
2024-01-11T21:06:35.192Z,-3.15
2024-01-11T21:26:35.246Z,-3.18
2024-01-11T21:46:35.081Z,-3.22
2024-01-11T22:06:35.036Z,-3.14
2024-01-11T22:26:35.416Z,-3.15
2024-01-11T22:46:35.134Z,-2.95
2024-01-11T23:06:35.281Z,-2.94
2024-01-11T23:26:35.241Z,-3.09
2024-01-11T23:46:35.147Z,-3.18
